createdAt,value
2023-02-08T00:01:28.310Z,80.65
2023-02-08T00:03:56.716Z,80.15
2023-02-08T00:06:25.177Z,80.82
2023-02-08T00:08:53.557Z,81.67
2023-02-08T00:11:22.071Z,82.00
2023-02-08T00:13:50.509Z,82.71
2023-02-08T00:16:19.425Z,83.69
2023-02-08T00:18:47.942Z,84.16
2023-02-08T00:21:18.300Z,84.87
2023-02-08T00:23:47.433Z,84.88
2023-02-08T00:26:16.286Z,84.78
2023-02-08T00:28:44.633Z,84.76
2023-02-08T00:31:13.106Z,84.84
2023-02-08T00:33:41.488Z,84.67
2023-02-08T00:36:10.553Z,84.23
2023-02-08T00:38:39.015Z,84.05
2023-02-08T00:41:07.489Z,83.15
2023-02-08T00:43:35.949Z,84.04
2023-02-08T00:46:05.015Z,83.83
2023-02-08T00:48:34.131Z,83.70
2023-02-08T00:51:12.850Z,83.23
2023-02-08T00:53:43.687Z,83.30
2023-02-08T00:56:13.379Z,83.14
2023-02-08T00:58:42.732Z,83.53
2023-02-08T01:01:12.029Z,82.56
2023-02-08T01:03:42.894Z,83.00
2023-02-08T01:06:14.903Z,82.96
2023-02-08T01:08:43.407Z,83.21
2023-02-08T01:11:15.510Z,83.30
2023-02-08T01:13:43.944Z,82.91
2023-02-08T01:16:24.848Z,82.92
2023-02-08T01:18:55.386Z,83.45
2023-02-08T01:21:27.369Z,83.14
2023-02-08T01:23:56.571Z,82.90
2023-02-08T01:26:26.844Z,82.79
2023-02-08T01:28:56.559Z,82.44
2023-02-08T01:31:30.458Z,81.74
2023-02-08T01:34:00.507Z,81.78
2023-02-08T01:36:30.847Z,81.20
2023-02-08T01:38:59.401Z,81.08
2023-02-08T01:41:31.287Z,80.71
2023-02-08T01:44:05.457Z,80.47
2023-02-08T01:46:39.229Z,80.05
2023-02-08T01:49:10.548Z,79.83
2023-02-08T01:51:44.040Z,79.12
2023-02-08T01:54:14.849Z,78.72
2023-02-08T01:56:46.740Z,78.94
2023-02-08T01:59:27.508Z,78.33
2023-02-08T02:01:59.278Z,77.60
2023-02-08T02:04:28.813Z,78.03
2023-02-08T02:07:01.067Z,76.94
2023-02-08T02:09:38.669Z,77.42
2023-02-08T02:12:09.902Z,76.86
2023-02-08T02:14:40.343Z,78.00
2023-02-08T02:17:08.940Z,78.47
2023-02-08T02:19:55.126Z,77.43
2023-02-08T02:23:00.448Z,76.91
2023-02-08T02:25:56.197Z,76.53
2023-02-08T02:29:01.382Z,76.13
2023-02-08T02:31:37.654Z,76.18
2023-02-08T02:34:20.584Z,75.75
2023-02-08T02:37:00.843Z,75.69
2023-02-08T02:40:07.402Z,75.52
2023-02-08T02:43:16.734Z,75.67
2023-02-08T02:45:55.895Z,72.29
2023-02-08T02:48:51.372Z,73.58
2023-02-08T02:51:34.344Z,74.53
2023-02-08T02:54:06.680Z,73.85
2023-02-08T02:56:44.927Z,73.09
2023-02-08T02:59:16.024Z,72.56
2023-02-08T03:01:47.356Z,72.70
2023-02-08T03:04:34.148Z,70.95
2023-02-08T03:07:21.180Z,71.74
2023-02-08T03:10:01.324Z,70.78
2023-02-08T03:12:29.588Z,71.07
2023-02-08T03:15:28.794Z,70.73
2023-02-08T03:18:24.353Z,70.28
2023-02-08T03:21:15.322Z,69.96
2023-02-08T03:23:53.804Z,69.06
2023-02-08T03:26:38.090Z,68.75
2023-02-08T03:29:12.856Z,68.08
2023-02-08T03:31:53.687Z,68.89
2023-02-08T03:34:36.926Z,68.34
2023-02-08T03:37:12.357Z,68.76
2023-02-08T03:39:43.320Z,65.95
2023-02-08T03:42:18.781Z,68.59
2023-02-08T03:45:01.981Z,69.19
2023-02-08T03:47:36.487Z,67.85
2023-02-08T03:50:10.692Z,68.07
2023-02-08T03:52:40.301Z,67.48
2023-02-08T03:55:18.937Z,67.32
2023-02-08T03:58:00.460Z,66.50
2023-02-08T04:00:32.278Z,64.18
2023-02-08T04:03:23.751Z,66.09
2023-02-08T04:05:52.254Z,66.10
2023-02-08T04:08:20.697Z,66.73
2023-02-08T04:10:49.299Z,64.38
2023-02-08T04:13:17.807Z,66.47
2023-02-08T04:15:46.286Z,62.69
2023-02-08T04:18:14.713Z,61.05
2023-02-08T04:20:43.071Z,59.18
2023-02-08T04:23:11.373Z,59.94
2023-02-08T04:25:40.982Z,60.47
2023-02-08T04:28:09.432Z,60.28
2023-02-08T04:30:37.799Z,60.90
2023-02-08T04:33:06.169Z,60.70
2023-02-08T04:35:34.891Z,61.43
2023-02-08T04:38:03.191Z,60.44
2023-02-08T04:40:32.454Z,57.67
2023-02-08T04:43:01.281Z,57.78
2023-02-08T04:45:32.985Z,58.51
2023-02-08T04:48:04.853Z,58.52
2023-02-08T04:50:33.185Z,58.82
2023-02-08T04:53:01.526Z,58.01
2023-02-08T04:55:29.892Z,61.67
2023-02-08T04:57:59.000Z,63.51
2023-02-08T05:00:28.273Z,62.66
2023-02-08T05:02:58.177Z,62.56
2023-02-08T05:05:28.228Z,61.58
2023-02-08T05:07:56.734Z,60.10
2023-02-08T05:10:25.090Z,60.69
2023-02-08T05:12:53.440Z,61.71
2023-02-08T05:15:21.996Z,59.32
2023-02-08T05:17:50.408Z,60.36
2023-02-08T05:20:19.000Z,58.43
2023-02-08T05:22:47.322Z,55.53
2023-02-08T05:25:15.847Z,54.99
2023-02-08T05:27:44.151Z,54.48
2023-02-08T05:30:12.865Z,58.22
2023-02-08T05:32:41.259Z,57.49
2023-02-08T05:35:09.921Z,56.59
2023-02-08T05:37:38.246Z,57.30
2023-02-08T05:40:06.962Z,56.73
2023-02-08T05:42:35.300Z,56.67
2023-02-08T05:45:03.762Z,57.03
2023-02-08T05:47:32.078Z,58.29
2023-02-08T05:50:00.364Z,56.58
2023-02-08T05:52:28.693Z,56.05
2023-02-08T05:54:56.989Z,56.41
2023-02-08T05:57:25.276Z,55.74
2023-02-08T05:59:53.616Z,54.87
2023-02-08T06:02:21.929Z,55.60
2023-02-08T06:04:50.325Z,55.97
2023-02-08T06:07:18.758Z,55.30
2023-02-08T06:09:48.524Z,54.95
2023-02-08T06:12:17.027Z,56.07
2023-02-08T06:14:45.908Z,56.43
2023-02-08T06:17:14.298Z,58.80
2023-02-08T06:19:42.598Z,56.83
2023-02-08T06:22:10.962Z,57.02
2023-02-08T06:24:39.325Z,54.56
2023-02-08T06:27:07.778Z,55.59
2023-02-08T06:29:36.154Z,58.25
2023-02-08T06:32:04.679Z,56.55
2023-02-08T06:34:33.067Z,58.30
2023-02-08T06:37:03.150Z,59.41
2023-02-08T06:39:31.510Z,59.31
2023-02-08T06:41:59.831Z,59.28
2023-02-08T06:44:28.296Z,58.09
2023-02-08T06:46:56.759Z,57.10
2023-02-08T06:49:25.046Z,57.90
2023-02-08T06:51:53.382Z,56.10
2023-02-08T06:54:21.675Z,55.72
2023-02-08T06:56:50.017Z,58.58
2023-02-08T06:59:18.478Z,58.83
2023-02-08T07:01:46.778Z,58.20
2023-02-08T07:04:15.779Z,58.97
2023-02-08T07:06:44.069Z,58.24
2023-02-08T07:09:12.391Z,57.71
2023-02-08T07:11:41.495Z,57.99
2023-02-08T07:14:14.148Z,57.82
2023-02-08T07:16:43.190Z,58.23
2023-02-08T07:19:11.664Z,57.87
2023-02-08T07:21:41.557Z,57.25
2023-02-08T07:24:09.884Z,56.77
2023-02-08T07:26:38.164Z,56.38
2023-02-08T07:29:06.709Z,57.20
2023-02-08T07:31:35.103Z,55.96
2023-02-08T07:34:03.511Z,56.53
2023-02-08T07:36:31.977Z,56.37
2023-02-08T07:39:00.300Z,57.02
2023-02-08T07:41:28.657Z,58.79
2023-02-08T07:43:56.948Z,55.53
2023-02-08T07:46:28.044Z,55.58
2023-02-08T07:48:56.564Z,56.53
2023-02-08T07:51:25.199Z,56.01
2023-02-08T07:53:53.833Z,56.93
2023-02-08T07:56:22.125Z,55.36
2023-02-08T07:58:50.403Z,56.46
2023-02-08T08:01:22.623Z,56.60
2023-02-08T08:03:53.256Z,57.75
2023-02-08T08:06:23.042Z,56.07
2023-02-08T08:08:51.979Z,54.98
2023-02-08T08:11:22.537Z,55.09
2023-02-08T08:13:51.648Z,56.98
2023-02-08T08:16:20.551Z,55.74
2023-02-08T08:18:50.164Z,56.96
2023-02-08T08:21:19.021Z,55.54
2023-02-08T08:23:47.438Z,56.64
2023-02-08T08:26:19.178Z,55.38
2023-02-08T08:28:48.396Z,54.98
2023-02-08T08:31:23.187Z,55.36
2023-02-08T08:33:51.994Z,56.08
2023-02-08T08:36:20.521Z,56.54
2023-02-08T08:38:49.057Z,56.78
2023-02-08T08:41:18.996Z,56.88
2023-02-08T08:43:47.464Z,56.78
2023-02-08T08:46:17.500Z,56.42
2023-02-08T08:48:46.374Z,56.08
2023-02-08T08:51:15.233Z,56.04
2023-02-08T08:53:43.664Z,56.79
2023-02-08T08:56:12.248Z,57.05
2023-02-08T08:58:41.015Z,54.67
2023-02-08T09:01:09.330Z,54.39
2023-02-08T09:03:38.813Z,55.14
2023-02-08T09:06:07.466Z,55.43
2023-02-08T09:08:35.868Z,56.89
2023-02-08T09:11:12.549Z,57.75
2023-02-08T09:13:41.536Z,57.60
2023-02-08T09:16:13.619Z,57.36
2023-02-08T09:18:42.504Z,55.76
2023-02-08T09:21:16.933Z,57.31
2023-02-08T09:23:45.290Z,58.05
2023-02-08T09:26:15.577Z,56.38
2023-02-08T09:28:44.384Z,57.19
2023-02-08T09:31:19.574Z,57.76
2023-02-08T09:33:51.773Z,58.60
2023-02-08T09:36:22.311Z,58.27
2023-02-08T09:38:52.609Z,58.52
2023-02-08T09:41:39.199Z,58.64
2023-02-08T09:44:16.893Z,58.02
2023-02-08T09:47:13.594Z,57.86
2023-02-08T09:50:00.185Z,58.27
2023-02-08T09:52:59.359Z,57.30
2023-02-08T09:55:39.602Z,57.14
2023-02-08T09:58:37.766Z,56.92
2023-02-08T10:01:13.394Z,56.77
2023-02-08T10:03:46.185Z,57.84
2023-02-08T10:06:20.028Z,58.39
2023-02-08T10:08:53.214Z,58.71
2023-02-08T10:12:05.400Z,59.65
2023-02-08T10:15:01.556Z,59.98
2023-02-08T10:17:37.902Z,61.22
2023-02-08T10:20:18.282Z,61.88
2023-02-08T10:23:23.495Z,61.93
2023-02-08T10:26:02.043Z,62.17
2023-02-08T10:28:57.157Z,62.02
2023-02-08T10:32:09.303Z,61.60
2023-02-08T10:34:58.664Z,62.20
2023-02-08T10:37:33.524Z,62.85
2023-02-08T10:40:24.679Z,62.52
2023-02-08T10:43:12.785Z,63.25
2023-02-08T10:46:11.524Z,63.31
2023-02-08T10:48:49.047Z,63.89
2023-02-08T10:51:22.515Z,63.85
2023-02-08T10:53:51.087Z,63.92
2023-02-08T10:56:31.611Z,64.69
2023-02-08T10:59:00.969Z,65.25
2023-02-08T11:01:29.814Z,65.00
2023-02-08T11:04:13.360Z,65.15
2023-02-08T11:06:43.528Z,66.60
2023-02-08T11:09:32.364Z,66.87
2023-02-08T11:12:03.548Z,67.35
2023-02-08T11:14:46.752Z,68.31
2023-02-08T11:17:32.565Z,68.24
2023-02-08T11:20:02.028Z,68.22
2023-02-08T11:22:32.534Z,68.24
2023-02-08T11:25:06.864Z,69.29
2023-02-08T11:27:45.842Z,68.71
2023-02-08T11:30:18.484Z,68.69
2023-02-08T11:32:48.932Z,68.48
2023-02-08T11:35:23.200Z,68.88
2023-02-08T11:37:58.160Z,68.36
2023-02-08T11:40:38.449Z,68.45
2023-02-08T11:43:07.052Z,68.59
2023-02-08T11:45:38.223Z,68.89
2023-02-08T11:48:20.068Z,69.25
2023-02-08T11:50:57.286Z,68.85
2023-02-08T11:53:34.565Z,68.94
2023-02-08T11:56:07.084Z,69.09
2023-02-08T11:58:35.885Z,69.19
2023-02-08T12:01:08.023Z,70.01
2023-02-08T12:03:41.825Z,70.65
2023-02-08T12:06:28.337Z,70.03
2023-02-08T12:09:22.310Z,69.80
2023-02-08T12:12:05.014Z,70.00
2023-02-08T12:14:35.954Z,70.23
2023-02-08T12:17:45.703Z,70.32
2023-02-08T12:20:33.973Z,70.32
2023-02-08T12:23:18.332Z,69.78
2023-02-08T12:26:10.982Z,69.74
2023-02-08T12:29:09.719Z,69.69
2023-02-08T12:31:40.784Z,70.40
2023-02-08T12:34:20.756Z,71.02
2023-02-08T12:37:31.820Z,70.86
2023-02-08T12:40:45.534Z,72.04
2023-02-08T12:43:37.812Z,73.38
2023-02-08T12:46:24.022Z,73.87
2023-02-08T12:48:55.149Z,75.13
2023-02-08T12:52:05.847Z,75.74
2023-02-08T12:54:59.150Z,75.50
2023-02-08T12:57:31.748Z,75.67
2023-02-08T13:00:09.352Z,76.46
2023-02-08T13:03:04.135Z,76.77
2023-02-08T13:05:39.203Z,77.35
2023-02-08T13:08:32.374Z,77.04
2023-02-08T13:11:30.423Z,77.67
2023-02-08T13:14:08.162Z,77.30
2023-02-08T13:16:51.585Z,78.37
2023-02-08T13:20:00.490Z,77.96
2023-02-08T13:22:35.677Z,78.14
2023-02-08T13:25:07.884Z,78.81
2023-02-08T13:27:37.113Z,79.00
2023-02-08T13:30:07.829Z,78.54
2023-02-08T13:32:46.625Z,78.54
2023-02-08T13:35:18.075Z,78.42
2023-02-08T13:37:54.527Z,77.80
2023-02-08T13:40:29.423Z,77.91
2023-02-08T13:43:36.007Z,78.16
2023-02-08T13:46:06.331Z,78.99
2023-02-08T13:49:00.896Z,79.54
2023-02-08T13:51:35.374Z,80.17
2023-02-08T13:54:03.695Z,80.57
2023-02-08T13:56:53.953Z,81.50
2023-02-08T13:59:29.989Z,81.83
2023-02-08T14:02:13.864Z,81.44
2023-02-08T14:04:44.910Z,81.83
2023-02-08T14:07:13.175Z,82.15
2023-02-08T14:10:04.650Z,82.17
2023-02-08T14:12:54.407Z,82.09
2023-02-08T14:15:25.739Z,82.24
2023-02-08T14:17:58.449Z,82.08
2023-02-08T14:20:42.432Z,83.25
2023-02-08T14:23:27.225Z,83.38
2023-02-08T14:25:57.932Z,83.18
2023-02-08T14:28:35.279Z,83.41
2023-02-08T14:31:11.419Z,83.53
2023-02-08T14:33:59.884Z,83.92
2023-02-08T14:36:32.899Z,84.03
2023-02-08T14:39:25.327Z,84.12
2023-02-08T14:41:58.218Z,84.56
2023-02-08T14:44:42.897Z,84.45
2023-02-08T14:47:26.227Z,84.64
2023-02-08T14:50:06.881Z,84.65
2023-02-08T14:52:35.834Z,84.90
2023-02-08T14:55:08.705Z,84.62
2023-02-08T14:57:38.889Z,83.99
2023-02-08T15:00:18.038Z,84.44
2023-02-08T15:02:47.802Z,84.43
2023-02-08T15:05:32.460Z,84.30
2023-02-08T15:08:03.021Z,83.94
2023-02-08T15:10:33.386Z,84.35
2023-02-08T15:13:07.426Z,84.47
2023-02-08T15:15:41.405Z,84.84
2023-02-08T15:18:20.752Z,85.12
2023-02-08T15:21:02.954Z,85.30
2023-02-08T15:23:31.896Z,85.25
2023-02-08T15:26:01.785Z,86.01
2023-02-08T15:28:32.481Z,86.04
2023-02-08T15:31:07.127Z,86.45
2023-02-08T15:33:39.174Z,86.27
2023-02-08T15:36:19.909Z,85.98
2023-02-08T15:38:49.354Z,86.53
2023-02-08T15:41:33.217Z,86.82
2023-02-08T15:44:24.643Z,87.24
2023-02-08T15:49:42.651Z,87.26
2023-02-08T15:52:18.620Z,87.19
2023-02-08T15:54:47.572Z,87.24
2023-02-08T15:57:49.561Z,87.28
2023-02-08T16:00:33.726Z,87.87
2023-02-08T16:03:10.380Z,87.66
2023-02-08T16:05:39.732Z,88.05
2023-02-08T16:08:08.762Z,88.41
2023-02-08T16:10:44.386Z,88.41
2023-02-08T16:13:33.009Z,88.60
2023-02-08T16:16:22.104Z,88.02
2023-02-08T16:19:18.986Z,87.74
2023-02-08T16:21:47.944Z,87.57
2023-02-08T16:24:16.204Z,87.69
2023-02-08T16:27:04.938Z,88.10
2023-02-08T16:29:41.118Z,88.65
2023-02-08T16:32:27.987Z,88.64
2023-02-08T16:34:57.226Z,89.97
2023-02-08T16:37:25.585Z,90.19
2023-02-08T16:39:59.637Z,89.70
2023-02-08T16:42:46.748Z,89.63
2023-02-08T16:45:21.656Z,89.19
2023-02-08T16:47:56.781Z,89.55
2023-02-08T16:50:27.954Z,89.47
2023-02-08T16:53:06.196Z,89.40
2023-02-08T16:55:38.015Z,89.53
2023-02-08T16:58:06.314Z,90.10
2023-02-08T17:00:36.565Z,90.12
2023-02-08T17:03:05.134Z,89.99
2023-02-08T17:05:38.536Z,90.23
2023-02-08T17:08:10.842Z,90.16
2023-02-08T17:10:39.878Z,90.12
2023-02-08T17:13:19.844Z,90.25
2023-02-08T17:15:51.438Z,90.51
2023-02-08T17:18:20.694Z,90.69
2023-02-08T17:20:49.451Z,90.41
2023-02-08T17:23:17.847Z,90.24
2023-02-08T17:25:46.580Z,90.43
2023-02-08T17:28:22.797Z,90.61
2023-02-08T17:30:51.695Z,90.70
2023-02-08T17:33:20.426Z,90.78
2023-02-08T17:35:51.457Z,90.58
2023-02-08T17:38:21.392Z,90.56
2023-02-08T17:40:49.915Z,90.93
2023-02-08T17:43:18.346Z,91.09
2023-02-08T17:45:47.081Z,91.48
2023-02-08T17:48:16.158Z,91.86
2023-02-08T17:50:48.786Z,91.89
2023-02-08T17:53:17.430Z,91.55
2023-02-08T17:55:47.465Z,91.81
2023-02-08T17:58:15.939Z,91.60
2023-02-08T18:00:44.291Z,91.75
2023-02-08T18:03:13.147Z,91.88
2023-02-08T18:05:41.487Z,91.89
2023-02-08T18:08:09.843Z,91.60
2023-02-08T18:10:38.245Z,91.46
2023-02-08T18:13:06.521Z,91.34
2023-02-08T18:15:35.603Z,91.25
2023-02-08T18:18:04.179Z,90.98
2023-02-08T18:20:32.560Z,90.99
2023-02-08T18:23:00.885Z,91.15
2023-02-08T18:25:29.308Z,91.15
2023-02-08T18:27:57.817Z,91.12
2023-02-08T18:30:27.265Z,91.42
2023-02-08T18:32:55.840Z,91.69
2023-02-08T18:35:24.793Z,91.83
2023-02-08T18:37:54.518Z,91.77
2023-02-08T18:40:22.955Z,91.62
2023-02-08T18:42:51.520Z,91.58
2023-02-08T18:45:20.130Z,91.62
2023-02-08T18:47:48.512Z,92.15
2023-02-08T18:50:16.931Z,93.31
2023-02-08T18:52:45.286Z,93.23
2023-02-08T18:55:13.671Z,92.80
2023-02-08T18:57:42.041Z,91.25
2023-02-08T19:00:11.080Z,91.74
2023-02-08T19:02:39.720Z,91.48
2023-02-08T19:05:11.007Z,89.63
2023-02-08T19:07:41.036Z,89.56
2023-02-08T19:10:09.630Z,90.58
2023-02-08T19:12:38.359Z,89.11
2023-02-08T19:15:07.100Z,87.03
2023-02-08T19:17:35.462Z,88.45
2023-02-08T19:20:04.032Z,87.59
2023-02-08T19:22:32.408Z,87.82
2023-02-08T19:25:00.818Z,86.56
2023-02-08T19:27:30.429Z,85.72
2023-02-08T19:29:58.791Z,86.47
2023-02-08T19:32:27.163Z,87.59
2023-02-08T19:34:55.520Z,86.78
2023-02-08T19:37:23.860Z,87.14
2023-02-08T19:39:52.205Z,86.58
2023-02-08T19:42:20.541Z,85.78
2023-02-08T19:44:48.913Z,86.17
2023-02-08T19:47:17.356Z,86.60
2023-02-08T19:49:45.702Z,86.58
2023-02-08T19:52:14.206Z,86.84
2023-02-08T19:54:42.544Z,87.06
2023-02-08T19:57:12.778Z,86.67
2023-02-08T19:59:41.094Z,85.94
2023-02-08T20:02:12.595Z,86.30
2023-02-08T20:04:41.671Z,86.82
2023-02-08T20:07:10.286Z,87.69
2023-02-08T20:09:38.773Z,88.16
2023-02-08T20:12:07.433Z,88.55
2023-02-08T20:14:36.096Z,88.89
2023-02-08T20:17:04.860Z,88.60
2023-02-08T20:19:33.192Z,88.54
2023-02-08T20:22:01.540Z,88.06
2023-02-08T20:24:29.879Z,88.61
2023-02-08T20:26:58.323Z,88.88
2023-02-08T20:29:28.770Z,89.49
2023-02-08T20:31:58.364Z,88.85
2023-02-08T20:34:27.110Z,88.90
2023-02-08T20:37:06.810Z,89.10
2023-02-08T20:39:37.290Z,88.88
2023-02-08T20:42:06.722Z,89.21
2023-02-08T20:44:35.135Z,89.26
2023-02-08T20:47:03.501Z,89.02
2023-02-08T20:49:33.097Z,89.07
2023-02-08T20:52:01.542Z,89.51
2023-02-08T20:54:30.015Z,89.85
2023-02-08T20:56:58.811Z,89.91
2023-02-08T20:59:27.254Z,90.17
2023-02-08T21:01:55.996Z,90.41
2023-02-08T21:04:24.448Z,90.55
2023-02-08T21:06:54.683Z,90.54
2023-02-08T21:09:26.187Z,90.47
2023-02-08T21:11:54.932Z,90.51
2023-02-08T21:14:24.326Z,90.54
2023-02-08T21:16:57.097Z,90.83
2023-02-08T21:19:27.581Z,91.02
2023-02-08T21:21:58.897Z,91.12
2023-02-08T21:24:28.284Z,90.96
2023-02-08T21:26:58.109Z,91.10
2023-02-08T21:29:27.014Z,91.22
2023-02-08T21:31:57.226Z,91.57
2023-02-08T21:34:25.642Z,91.67
2023-02-08T21:36:54.026Z,91.82
2023-02-08T21:39:24.135Z,92.04
2023-02-08T21:41:54.140Z,92.19
2023-02-08T21:44:22.840Z,91.72
2023-02-08T21:46:51.186Z,93.29
2023-02-08T21:49:37.610Z,94.26
2023-02-08T21:52:24.388Z,93.65
2023-02-08T21:54:54.451Z,91.82
2023-02-08T21:57:26.711Z,92.70
2023-02-08T21:59:59.964Z,93.16
2023-02-08T22:02:32.114Z,93.46
2023-02-08T22:05:02.313Z,93.67
2023-02-08T22:07:40.735Z,90.80
2023-02-08T22:10:11.069Z,91.91
2023-02-08T22:12:42.066Z,92.80
2023-02-08T22:15:13.166Z,93.66
2023-02-08T22:17:41.598Z,94.20
2023-02-08T22:20:10.881Z,94.57
2023-02-08T22:22:39.341Z,94.77
2023-02-08T22:25:08.379Z,95.28
2023-02-08T22:27:36.833Z,95.14
2023-02-08T22:30:05.485Z,95.60
2023-02-08T22:32:34.165Z,95.42
2023-02-08T22:35:02.454Z,95.70
2023-02-08T22:37:30.789Z,95.65
2023-02-08T22:39:59.150Z,95.49
2023-02-08T22:42:28.771Z,93.91
2023-02-08T22:44:57.285Z,94.02
2023-02-08T22:47:25.755Z,94.14
2023-02-08T22:49:57.116Z,95.29
2023-02-08T22:52:26.757Z,95.39
2023-02-08T22:54:56.962Z,96.06
2023-02-08T22:57:25.345Z,95.88
2023-02-08T22:59:53.712Z,95.95
2023-02-08T23:02:22.053Z,95.73
2023-02-08T23:04:50.379Z,95.57
2023-02-08T23:07:19.299Z,95.20
2023-02-08T23:09:48.143Z,96.00
2023-02-08T23:12:16.685Z,96.36
2023-02-08T23:14:45.388Z,96.78
2023-02-08T23:17:13.684Z,96.44
2023-02-08T23:19:42.732Z,96.35
2023-02-08T23:22:11.071Z,96.64
2023-02-08T23:24:39.464Z,96.11
2023-02-08T23:27:07.756Z,96.31
2023-02-08T23:29:36.029Z,96.34
2023-02-08T23:32:04.429Z,96.79
2023-02-08T23:34:32.728Z,96.58
2023-02-08T23:37:01.097Z,96.57
2023-02-08T23:39:29.386Z,96.53
2023-02-08T23:41:57.792Z,97.05
2023-02-08T23:44:27.468Z,97.17
2023-02-08T23:46:55.867Z,96.91
2023-02-08T23:49:24.441Z,97.01
2023-02-08T23:51:54.618Z,97.35
2023-02-08T23:54:22.919Z,97.11
2023-02-08T23:56:52.890Z,96.95
2023-02-08T23:59:21.191Z,97.15
